sensor_id;sensor_type;location;lat;lon;timestamp;P1;durP1;ratioP1;P2;durP2;ratioP2
56271;SDS011;42177;48.914;18.160;2023-12-04T00:00:59;20.3;;;14.9;;
56271;SDS011;42177;48.914;18.160;2023-12-04T00:05:59;21.8;;;15.8;;
56271;SDS011;42177;48.914;18.160;2023-12-04T00:10:59;21.8;;;15.8;;
56271;SDS011;42177;48.914;18.160;2023-12-04T00:15:59;19.3;;;14.5;;
56271;SDS011;42177;48.914;18.160;2023-12-04T00:20:59;19.3;;;14.5;;
56271;SDS011;42177;48.914;18.160;2023-12-04T00:25:59;20.5;;;15.4;;
56271;SDS011;42177;48.914;18.160;2023-12-04T00:30:59;20.5;;;15.4;;
56271;SDS011;42177;48.914;18.160;2023-12-04T00:35:59;18.8;;;13.9;;
56271;SDS011;42177;48.914;18.160;2023-12-04T00:40:59;18.8;;;13.9;;
56271;SDS011;42177;48.914;18.160;2023-12-04T00:45:59;16.3;;;13;;
56271;SDS011;42177;48.914;18.160;2023-12-04T00:50:59;16.3;;;13;;
56271;SDS011;42177;48.914;18.160;2023-12-04T00:55:59;15.8;;;12;;
56271;SDS011;42177;48.914;18.160;2023-12-04T01:00:59;15.8;;;12;;
56271;SDS011;42177;48.914;18.160;2023-12-04T01:05:59;16.7;;;12.4;;
56271;SDS011;42177;48.914;18.160;2023-12-04T01:10:59;16.7;;;12.4;;
56271;SDS011;42177;48.914;18.160;2023-12-04T01:15:59;16.1;;;12.2;;
56271;SDS011;42177;48.914;18.160;2023-12-04T01:20:59;16.1;;;12.2;;
56271;SDS011;42177;48.914;18.160;2023-12-04T01:25:59;13.2;;;9.9;;
56271;SDS011;42177;48.914;18.160;2023-12-04T01:30:59;13.2;;;9.9;;
56271;SDS011;42177;48.914;18.160;2023-12-04T01:35:59;14.7;;;10.3;;
56271;SDS011;42177;48.914;18.160;2023-12-04T01:40:59;14.7;;;10.3;;
56271;SDS011;42177;48.914;18.160;2023-12-04T01:45:59;13.3;;;9.4;;
56271;SDS011;42177;48.914;18.160;2023-12-04T01:51:00;13.3;;;9.4;;
56271;SDS011;42177;48.914;18.160;2023-12-04T01:55:59;11.2;;;8.7;;
56271;SDS011;42177;48.914;18.160;2023-12-04T02:00:59;11.2;;;8.7;;
56271;SDS011;42177;48.914;18.160;2023-12-04T02:05:59;10.4;;;7.8;;
56271;SDS011;42177;48.914;18.160;2023-12-04T02:10:59;10.4;;;7.8;;
56271;SDS011;42177;48.914;18.160;2023-12-04T02:16:00;10.1;;;7.5;;
56271;SDS011;42177;48.914;18.160;2023-12-04T02:20:59;10.1;;;7.5;;
56271;SDS011;42177;48.914;18.160;2023-12-04T02:25:59;11.6;;;8.7;;
56271;SDS011;42177;48.914;18.160;2023-12-04T02:30:59;11.6;;;8.7;;
56271;SDS011;42177;48.914;18.160;2023-12-04T02:35:59;11.1;;;7.3;;
56271;SDS011;42177;48.914;18.160;2023-12-04T02:40:59;11.1;;;7.3;;
56271;SDS011;42177;48.914;18.160;2023-12-04T02:45:59;10.5;;;8.2;;
56271;SDS011;42177;48.914;18.160;2023-12-04T02:50:59;10.5;;;8.2;;
56271;SDS011;42177;48.914;18.160;2023-12-04T02:55:59;11.4;;;8.8;;
56271;SDS011;42177;48.914;18.160;2023-12-04T03:00:59;11.4;;;8.8;;
56271;SDS011;42177;48.914;18.160;2023-12-04T03:05:59;10.5;;;8.1;;
56271;SDS011;42177;48.914;18.160;2023-12-04T03:11:00;10.5;;;8.1;;
56271;SDS011;42177;48.914;18.160;2023-12-04T03:15:59;12.2;;;9.5;;
56271;SDS011;42177;48.914;18.160;2023-12-04T03:20:59;12.2;;;9.5;;
56271;SDS011;42177;48.914;18.160;2023-12-04T03:25:59;13.2;;;10;;
56271;SDS011;42177;48.914;18.160;2023-12-04T03:30:59;13.2;;;10;;
56271;SDS011;42177;48.914;18.160;2023-12-04T03:35:59;11.3;;;9.4;;
56271;SDS011;42177;48.914;18.160;2023-12-04T03:40:59;11.3;;;9.4;;
56271;SDS011;42177;48.914;18.160;2023-12-04T03:45:59;13;;;10.3;;
56271;SDS011;42177;48.914;18.160;2023-12-04T03:50:59;13;;;10.3;;
56271;SDS011;42177;48.914;18.160;2023-12-04T03:55:59;12.8;;;10;;
56271;SDS011;42177;48.914;18.160;2023-12-04T04:00:59;12.8;;;10;;
56271;SDS011;42177;48.914;18.160;2023-12-04T04:05:59;12.9;;;9.9;;
56271;SDS011;42177;48.914;18.160;2023-12-04T04:10:59;12.9;;;9.9;;
56271;SDS011;42177;48.914;18.160;2023-12-04T04:15:59;12.8;;;10.2;;
56271;SDS011;42177;48.914;18.160;2023-12-04T04:20:59;12.8;;;10.2;;
56271;SDS011;42177;48.914;18.160;2023-12-04T04:25:59;11.5;;;9.4;;
56271;SDS011;42177;48.914;18.160;2023-12-04T04:30:59;11.5;;;9.4;;
56271;SDS011;42177;48.914;18.160;2023-12-04T04:35:59;12.7;;;10.3;;
56271;SDS011;42177;48.914;18.160;2023-12-04T04:40:59;12.7;;;10.3;;
56271;SDS011;42177;48.914;18.160;2023-12-04T04:45:59;12.6;;;10.2;;
56271;SDS011;42177;48.914;18.160;2023-12-04T04:50:59;12.6;;;10.2;;
56271;SDS011;42177;48.914;18.160;2023-12-04T04:55:59;14.3;;;11.4;;
56271;SDS011;42177;48.914;18.160;2023-12-04T05:00:59;14.3;;;11.4;;
56271;SDS011;42177;48.914;18.160;2023-12-04T05:05:59;16.3;;;12;;
56271;SDS011;42177;48.914;18.160;2023-12-04T05:10:59;16.3;;;12;;
56271;SDS011;42177;48.914;18.160;2023-12-04T05:15:59;13.8;;;10.7;;
56271;SDS011;42177;48.914;18.160;2023-12-04T05:20:59;13.8;;;10.7;;
56271;SDS011;42177;48.914;18.160;2023-12-04T05:25:59;15.2;;;12;;
56271;SDS011;42177;48.914;18.160;2023-12-04T05:30:59;15.2;;;12;;
56271;SDS011;42177;48.914;18.160;2023-12-04T05:35:59;13.4;;;10.8;;
56271;SDS011;42177;48.914;18.160;2023-12-04T05:40:59;13.4;;;10.8;;
56271;SDS011;42177;48.914;18.160;2023-12-04T05:45:59;15.1;;;10.8;;
56271;SDS011;42177;48.914;18.160;2023-12-04T05:50:59;15.1;;;10.8;;
56271;SDS011;42177;48.914;18.160;2023-12-04T05:55:59;13.8;;;10.8;;
56271;SDS011;42177;48.914;18.160;2023-12-04T06:00:59;13.8;;;10.8;;
56271;SDS011;42177;48.914;18.160;2023-12-04T06:05:59;13.5;;;10.7;;
56271;SDS011;42177;48.914;18.160;2023-12-04T06:10:59;13.5;;;10.7;;
56271;SDS011;42177;48.914;18.160;2023-12-04T06:15:59;15;;;11.7;;
56271;SDS011;42177;48.914;18.160;2023-12-04T06:20:59;15;;;11.7;;
56271;SDS011;42177;48.914;18.160;2023-12-04T06:25:59;15.3;;;11.6;;
56271;SDS011;42177;48.914;18.160;2023-12-04T06:30:59;15.3;;;11.6;;
56271;SDS011;42177;48.914;18.160;2023-12-04T06:35:59;15;;;12.1;;
56271;SDS011;42177;48.914;18.160;2023-12-04T06:40:59;15;;;12.1;;
56271;SDS011;42177;48.914;18.160;2023-12-04T06:45:59;16.7;;;13.2;;
56271;SDS011;42177;48.914;18.160;2023-12-04T06:50:59;16.7;;;13.2;;
56271;SDS011;42177;48.914;18.160;2023-12-04T06:55:59;16;;;13.1;;
56271;SDS011;42177;48.914;18.160;2023-12-04T07:00:59;16;;;13.1;;
56271;SDS011;42177;48.914;18.160;2023-12-04T07:05:59;16.2;;;12.6;;
56271;SDS011;42177;48.914;18.160;2023-12-04T07:10:59;16.2;;;12.6;;
56271;SDS011;42177;48.914;18.160;2023-12-04T07:15:59;16;;;12.2;;
56271;SDS011;42177;48.914;18.160;2023-12-04T07:20:59;16;;;12.2;;
56271;SDS011;42177;48.914;18.160;2023-12-04T07:25:59;14.1;;;11.7;;
56271;SDS011;42177;48.914;18.160;2023-12-04T07:30:59;14.1;;;11.7;;
56271;SDS011;42177;48.914;18.160;2023-12-04T07:35:59;15.8;;;12.7;;
56271;SDS011;42177;48.914;18.160;2023-12-04T07:40:59;15.8;;;12.7;;
56271;SDS011;42177;48.914;18.160;2023-12-04T07:45:59;15.2;;;12.2;;
56271;SDS011;42177;48.914;18.160;2023-12-04T07:50:59;15.2;;;12.2;;
56271;SDS011;42177;48.914;18.160;2023-12-04T07:56:00;16.2;;;13.3;;
56271;SDS011;42177;48.914;18.160;2023-12-04T08:00:59;16.2;;;13.3;;
56271;SDS011;42177;48.914;18.160;2023-12-04T08:05:59;15.8;;;12.8;;
56271;SDS011;42177;48.914;18.160;2023-12-04T08:10:59;15.8;;;12.8;;
56271;SDS011;42177;48.914;18.160;2023-12-04T08:15:59;15.2;;;12.4;;
56271;SDS011;42177;48.914;18.160;2023-12-04T08:20:59;15.2;;;12.4;;
56271;SDS011;42177;48.914;18.160;2023-12-04T08:25:59;15.9;;;12.9;;
56271;SDS011;42177;48.914;18.160;2023-12-04T08:30:59;15.9;;;12.9;;
56271;SDS011;42177;48.914;18.160;2023-12-04T08:35:59;16.5;;;13;;
56271;SDS011;42177;48.914;18.160;2023-12-04T08:40:59;16.5;;;13;;
56271;SDS011;42177;48.914;18.160;2023-12-04T08:45:59;13.9;;;11.8;;
56271;SDS011;42177;48.914;18.160;2023-12-04T08:50:59;13.9;;;11.8;;
56271;SDS011;42177;48.914;18.160;2023-12-04T08:55:59;15.3;;;12.4;;
56271;SDS011;42177;48.914;18.160;2023-12-04T09:00:59;15.3;;;12.4;;
56271;SDS011;42177;48.914;18.160;2023-12-04T09:05:59;14.9;;;11.8;;
56271;SDS011;42177;48.914;18.160;2023-12-04T09:10:59;14.9;;;11.8;;
56271;SDS011;42177;48.914;18.160;2023-12-04T09:15:59;12.1;;;9.8;;
56271;SDS011;42177;48.914;18.160;2023-12-04T09:20:59;12.1;;;9.8;;
56271;SDS011;42177;48.914;18.160;2023-12-04T09:25:59;11.9;;;10.1;;
56271;SDS011;42177;48.914;18.160;2023-12-04T09:30:59;11.9;;;10.1;;
56271;SDS011;42177;48.914;18.160;2023-12-04T09:35:59;11;;;9;;
56271;SDS011;42177;48.914;18.160;2023-12-04T09:40:59;11;;;9;;
56271;SDS011;42177;48.914;18.160;2023-12-04T09:45:59;10;;;8.4;;
56271;SDS011;42177;48.914;18.160;2023-12-04T09:50:59;10;;;8.4;;
56271;SDS011;42177;48.914;18.160;2023-12-04T09:55:59;10.8;;;9.4;;
56271;SDS011;42177;48.914;18.160;2023-12-04T10:00:59;10.8;;;9.4;;
56271;SDS011;42177;48.914;18.160;2023-12-04T10:05:59;10.5;;;8.6;;
56271;SDS011;42177;48.914;18.160;2023-12-04T10:10:59;10.5;;;8.6;;
56271;SDS011;42177;48.914;18.160;2023-12-04T10:15:59;10.8;;;9.1;;
56271;SDS011;42177;48.914;18.160;2023-12-04T10:20:59;10.8;;;9.1;;
56271;SDS011;42177;48.914;18.160;2023-12-04T10:25:59;11.5;;;9.6;;
56271;SDS011;42177;48.914;18.160;2023-12-04T10:30:59;11.5;;;9.6;;
56271;SDS011;42177;48.914;18.160;2023-12-04T10:35:59;11.4;;;8.5;;
56271;SDS011;42177;48.914;18.160;2023-12-04T10:41:01;11.4;;;8.5;;
56271;SDS011;42177;48.914;18.160;2023-12-04T10:45:59;8.6;;;7.4;;
56271;SDS011;42177;48.914;18.160;2023-12-04T10:50:59;8.6;;;7.4;;
56271;SDS011;42177;48.914;18.160;2023-12-04T10:55:59;8.5;;;7.6;;
56271;SDS011;42177;48.914;18.160;2023-12-04T11:00:59;8.5;;;7.6;;
56271;SDS011;42177;48.914;18.160;2023-12-04T11:05:59;9.3;;;7.7;;
56271;SDS011;42177;48.914;18.160;2023-12-04T11:11:00;9.3;;;7.7;;
56271;SDS011;42177;48.914;18.160;2023-12-04T11:16:00;8.6;;;7.4;;
56271;SDS011;42177;48.914;18.160;2023-12-04T11:21:00;8.6;;;7.4;;
56271;SDS011;42177;48.914;18.160;2023-12-04T11:25:59;9.3;;;7.7;;
56271;SDS011;42177;48.914;18.160;2023-12-04T11:30:59;9.3;;;7.7;;
56271;SDS011;42177;48.914;18.160;2023-12-04T11:36:05;9.6;;;8.2;;
56271;SDS011;42177;48.914;18.160;2023-12-04T11:40:59;9.6;;;8.2;;
56271;SDS011;42177;48.914;18.160;2023-12-04T11:46:07;9.4;;;7.8;;
56271;SDS011;42177;48.914;18.160;2023-12-04T11:50:59;9.4;;;7.8;;
56271;SDS011;42177;48.914;18.160;2023-12-04T11:55:59;9.6;;;8.6;;
56271;SDS011;42177;48.914;18.160;2023-12-04T12:00:59;9.6;;;8.6;;
56271;SDS011;42177;48.914;18.160;2023-12-04T12:05:59;9.1;;;7.9;;
56271;SDS011;42177;48.914;18.160;2023-12-04T12:10:59;9.1;;;7.9;;
56271;SDS011;42177;48.914;18.160;2023-12-04T12:15:59;11.3;;;8.1;;
56271;SDS011;42177;48.914;18.160;2023-12-04T12:20:59;11.3;;;8.1;;
56271;SDS011;42177;48.914;18.160;2023-12-04T12:25:59;10;;;8.1;;
56271;SDS011;42177;48.914;18.160;2023-12-04T12:31:01;10;;;8.1;;
56271;SDS011;42177;48.914;18.160;2023-12-04T12:35:59;9.6;;;8.1;;
56271;SDS011;42177;48.914;18.160;2023-12-04T12:40:59;9.6;;;8.1;;
56271;SDS011;42177;48.914;18.160;2023-12-04T12:45:59;10.8;;;8;;
56271;SDS011;42177;48.914;18.160;2023-12-04T12:50:59;10.8;;;8;;
56271;SDS011;42177;48.914;18.160;2023-12-04T12:55:59;9.4;;;8.3;;
56271;SDS011;42177;48.914;18.160;2023-12-04T13:00:59;9.4;;;8.3;;
56271;SDS011;42177;48.914;18.160;2023-12-04T13:05:59;9.9;;;8.3;;
56271;SDS011;42177;48.914;18.160;2023-12-04T13:10:59;9.9;;;8.3;;
56271;SDS011;42177;48.914;18.160;2023-12-04T13:15:59;11.3;;;9;;
56271;SDS011;42177;48.914;18.160;2023-12-04T13:20:59;11.3;;;9;;
56271;SDS011;42177;48.914;18.160;2023-12-04T13:25:59;11.4;;;9.4;;
56271;SDS011;42177;48.914;18.160;2023-12-04T13:30:59;11.4;;;9.4;;
56271;SDS011;42177;48.914;18.160;2023-12-04T13:35:59;11;;;9.4;;
56271;SDS011;42177;48.914;18.160;2023-12-04T13:41:00;11;;;9.4;;
56271;SDS011;42177;48.914;18.160;2023-12-04T13:45:59;12.5;;;9.3;;
56271;SDS011;42177;48.914;18.160;2023-12-04T13:50:59;12.5;;;9.3;;
56271;SDS011;42177;48.914;18.160;2023-12-04T13:55:59;11.4;;;8.8;;
56271;SDS011;42177;48.914;18.160;2023-12-04T14:00:59;11.4;;;8.8;;
56271;SDS011;42177;48.914;18.160;2023-12-04T14:05:59;11.7;;;9.3;;
56271;SDS011;42177;48.914;18.160;2023-12-04T14:10:59;11.7;;;9.3;;
56271;SDS011;42177;48.914;18.160;2023-12-04T14:15:59;10.5;;;8.6;;
56271;SDS011;42177;48.914;18.160;2023-12-04T14:20:59;10.5;;;8.6;;
56271;SDS011;42177;48.914;18.160;2023-12-04T14:25:59;11.2;;;8.9;;
56271;SDS011;42177;48.914;18.160;2023-12-04T14:30:59;11.2;;;8.9;;
56271;SDS011;42177;48.914;18.160;2023-12-04T14:35:59;9.7;;;7.4;;
56271;SDS011;42177;48.914;18.160;2023-12-04T14:40:59;9.7;;;7.4;;
56271;SDS011;42177;48.914;18.160;2023-12-04T14:45:59;10.2;;;7.5;;
56271;SDS011;42177;48.914;18.160;2023-12-04T14:50:59;10.2;;;7.5;;
56271;SDS011;42177;48.914;18.160;2023-12-04T14:55:59;8.5;;;6.4;;
56271;SDS011;42177;48.914;18.160;2023-12-04T15:00:59;8.5;;;6.4;;
56271;SDS011;42177;48.914;18.160;2023-12-04T15:05:59;7.9;;;6.5;;
56271;SDS011;42177;48.914;18.160;2023-12-04T15:10:59;7.9;;;6.5;;
56271;SDS011;42177;48.914;18.160;2023-12-04T15:15:59;8;;;5.8;;
56271;SDS011;42177;48.914;18.160;2023-12-04T15:20:59;8;;;5.8;;
56271;SDS011;42177;48.914;18.160;2023-12-04T15:25:59;6.4;;;5.2;;
56271;SDS011;42177;48.914;18.160;2023-12-04T15:30:59;6.4;;;5.2;;
56271;SDS011;42177;48.914;18.160;2023-12-04T15:35:59;6.1;;;4.9;;
56271;SDS011;42177;48.914;18.160;2023-12-04T15:40:59;6.1;;;4.9;;
56271;SDS011;42177;48.914;18.160;2023-12-04T15:45:59;6.7;;;5.1;;
56271;SDS011;42177;48.914;18.160;2023-12-04T15:50:59;6.7;;;5.1;;
56271;SDS011;42177;48.914;18.160;2023-12-04T15:55:59;6.2;;;4.9;;
56271;SDS011;42177;48.914;18.160;2023-12-04T16:00:59;6.2;;;4.9;;
56271;SDS011;42177;48.914;18.160;2023-12-04T16:05:59;6.2;;;5.1;;
56271;SDS011;42177;48.914;18.160;2023-12-04T16:10:59;6.2;;;5.1;;
56271;SDS011;42177;48.914;18.160;2023-12-04T16:15:59;7.4;;;5.2;;
56271;SDS011;42177;48.914;18.160;2023-12-04T16:20:59;7.4;;;5.2;;
56271;SDS011;42177;48.914;18.160;2023-12-04T16:25:59;6.7;;;5.3;;
56271;SDS011;42177;48.914;18.160;2023-12-04T16:30:59;6.7;;;5.3;;
56271;SDS011;42177;48.914;18.160;2023-12-04T16:35:59;7.4;;;5.8;;
56271;SDS011;42177;48.914;18.160;2023-12-04T16:40:59;7.4;;;5.8;;
56271;SDS011;42177;48.914;18.160;2023-12-04T16:45:59;7.9;;;6.1;;
56271;SDS011;42177;48.914;18.160;2023-12-04T16:50:59;7.9;;;6.1;;
56271;SDS011;42177;48.914;18.160;2023-12-04T16:55:59;7.9;;;6.2;;
56271;SDS011;42177;48.914;18.160;2023-12-04T17:00:59;7.9;;;6.2;;
56271;SDS011;42177;48.914;18.160;2023-12-04T17:05:59;7.3;;;5.9;;
56271;SDS011;42177;48.914;18.160;2023-12-04T17:10:59;7.3;;;5.9;;
56271;SDS011;42177;48.914;18.160;2023-12-04T17:15:59;8.6;;;6.1;;
56271;SDS011;42177;48.914;18.160;2023-12-04T17:20:59;8.6;;;6.1;;
56271;SDS011;42177;48.914;18.160;2023-12-04T17:25:59;8.3;;;6.4;;
56271;SDS011;42177;48.914;18.160;2023-12-04T17:30:59;8.3;;;6.4;;
56271;SDS011;42177;48.914;18.160;2023-12-04T17:35:59;7.8;;;6;;
56271;SDS011;42177;48.914;18.160;2023-12-04T17:40:59;7.8;;;6;;
56271;SDS011;42177;48.914;18.160;2023-12-04T17:45:59;8.9;;;6.6;;
56271;SDS011;42177;48.914;18.160;2023-12-04T17:50:59;8.9;;;6.6;;
56271;SDS011;42177;48.914;18.160;2023-12-04T17:55:59;9.8;;;6;;
56271;SDS011;42177;48.914;18.160;2023-12-04T18:00:59;9.8;;;6;;
56271;SDS011;42177;48.914;18.160;2023-12-04T18:05:59;7.7;;;6.2;;
56271;SDS011;42177;48.914;18.160;2023-12-04T18:10:59;7.7;;;6.2;;
56271;SDS011;42177;48.914;18.160;2023-12-04T18:15:59;8;;;6.5;;
56271;SDS011;42177;48.914;18.160;2023-12-04T18:20:59;8;;;6.5;;
56271;SDS011;42177;48.914;18.160;2023-12-04T18:25:59;9.2;;;6.6;;
56271;SDS011;42177;48.914;18.160;2023-12-04T18:30:59;9.2;;;6.6;;
56271;SDS011;42177;48.914;18.160;2023-12-04T18:35:59;8.5;;;6.4;;
56271;SDS011;42177;48.914;18.160;2023-12-04T18:40:59;8.5;;;6.4;;
56271;SDS011;42177;48.914;18.160;2023-12-04T18:45:59;9.9;;;7.2;;
56271;SDS011;42177;48.914;18.160;2023-12-04T18:50:59;9.9;;;7.2;;
56271;SDS011;42177;48.914;18.160;2023-12-04T18:55:59;9.2;;;7.4;;
56271;SDS011;42177;48.914;18.160;2023-12-04T19:00:59;9.2;;;7.4;;
56271;SDS011;42177;48.914;18.160;2023-12-04T19:05:59;11.8;;;8.3;;
56271;SDS011;42177;48.914;18.160;2023-12-04T19:10:59;11.8;;;8.3;;
56271;SDS011;42177;48.914;18.160;2023-12-04T19:15:59;9.6;;;7.3;;
56271;SDS011;42177;48.914;18.160;2023-12-04T19:20:59;9.6;;;7.3;;
56271;SDS011;42177;48.914;18.160;2023-12-04T19:25:59;12.9;;;7.8;;
56271;SDS011;42177;48.914;18.160;2023-12-04T19:30:59;12.9;;;7.8;;
56271;SDS011;42177;48.914;18.160;2023-12-04T19:35:59;9.8;;;7.6;;
56271;SDS011;42177;48.914;18.160;2023-12-04T19:40:59;9.8;;;7.6;;
56271;SDS011;42177;48.914;18.160;2023-12-04T19:46:01;10.3;;;8;;
56271;SDS011;42177;48.914;18.160;2023-12-04T19:51:02;10.3;;;8;;
56271;SDS011;42177;48.914;18.160;2023-12-04T19:55:59;10.4;;;8;;
56271;SDS011;42177;48.914;18.160;2023-12-04T20:00:59;10.4;;;8;;
56271;SDS011;42177;48.914;18.160;2023-12-04T20:05:59;11.2;;;8.2;;
56271;SDS011;42177;48.914;18.160;2023-12-04T20:10:59;11.2;;;8.2;;
56271;SDS011;42177;48.914;18.160;2023-12-04T20:15:59;11.5;;;9.5;;
56271;SDS011;42177;48.914;18.160;2023-12-04T20:20:59;11.5;;;9.5;;
56271;SDS011;42177;48.914;18.160;2023-12-04T20:25:59;11.7;;;8.9;;
56271;SDS011;42177;48.914;18.160;2023-12-04T20:30:59;11.7;;;8.9;;
56271;SDS011;42177;48.914;18.160;2023-12-04T20:35:59;10.8;;;8.7;;
56271;SDS011;42177;48.914;18.160;2023-12-04T20:40:59;10.8;;;8.7;;
56271;SDS011;42177;48.914;18.160;2023-12-04T20:45:59;11.8;;;8.8;;
56271;SDS011;42177;48.914;18.160;2023-12-04T20:50:59;11.8;;;8.8;;
56271;SDS011;42177;48.914;18.160;2023-12-04T20:55:59;11;;;8.4;;
56271;SDS011;42177;48.914;18.160;2023-12-04T21:00:59;11;;;8.4;;
56271;SDS011;42177;48.914;18.160;2023-12-04T21:05:59;11.1;;;8.4;;
56271;SDS011;42177;48.914;18.160;2023-12-04T21:10:59;11.1;;;8.4;;
56271;SDS011;42177;48.914;18.160;2023-12-04T21:15:59;10.3;;;8.1;;
56271;SDS011;42177;48.914;18.160;2023-12-04T21:20:59;10.3;;;8.1;;
56271;SDS011;42177;48.914;18.160;2023-12-04T21:25:59;9.9;;;7.5;;
56271;SDS011;42177;48.914;18.160;2023-12-04T21:30:59;9.9;;;7.5;;
56271;SDS011;42177;48.914;18.160;2023-12-04T21:35:59;8.7;;;7;;
56271;SDS011;42177;48.914;18.160;2023-12-04T21:40:59;8.7;;;7;;
56271;SDS011;42177;48.914;18.160;2023-12-04T21:45:59;10.2;;;7.1;;
56271;SDS011;42177;48.914;18.160;2023-12-04T21:50:59;10.2;;;7.1;;
56271;SDS011;42177;48.914;18.160;2023-12-04T21:55:59;10.2;;;7.7;;
56271;SDS011;42177;48.914;18.160;2023-12-04T22:00:59;10.2;;;7.7;;
56271;SDS011;42177;48.914;18.160;2023-12-04T22:05:59;9.6;;;7.8;;
56271;SDS011;42177;48.914;18.160;2023-12-04T22:10:59;9.6;;;7.8;;
56271;SDS011;42177;48.914;18.160;2023-12-04T22:15:59;13.2;;;8;;
56271;SDS011;42177;48.914;18.160;2023-12-04T22:20:59;13.2;;;8;;
56271;SDS011;42177;48.914;18.160;2023-12-04T22:25:59;10.5;;;8;;
56271;SDS011;42177;48.914;18.160;2023-12-04T22:30:59;10.5;;;8;;
56271;SDS011;42177;48.914;18.160;2023-12-04T22:35:59;8.9;;;7.1;;
56271;SDS011;42177;48.914;18.160;2023-12-04T22:40:59;8.9;;;7.1;;
56271;SDS011;42177;48.914;18.160;2023-12-04T22:45:59;8.9;;;7.1;;
56271;SDS011;42177;48.914;18.160;2023-12-04T22:50:59;8.9;;;7.1;;
56271;SDS011;42177;48.914;18.160;2023-12-04T22:55:59;9.4;;;7.2;;
56271;SDS011;42177;48.914;18.160;2023-12-04T23:00:59;9.4;;;7.2;;
56271;SDS011;42177;48.914;18.160;2023-12-04T23:05:59;8.7;;;6.9;;
56271;SDS011;42177;48.914;18.160;2023-12-04T23:10:59;8.7;;;6.9;;
56271;SDS011;42177;48.914;18.160;2023-12-04T23:15:59;7.7;;;6.5;;
56271;SDS011;42177;48.914;18.160;2023-12-04T23:20:59;7.7;;;6.5;;
56271;SDS011;42177;48.914;18.160;2023-12-04T23:25:59;8.8;;;6.7;;
56271;SDS011;42177;48.914;18.160;2023-12-04T23:30:59;8.8;;;6.7;;
56271;SDS011;42177;48.914;18.160;2023-12-04T23:35:59;7.3;;;5.9;;
56271;SDS011;42177;48.914;18.160;2023-12-04T23:40:59;7.3;;;5.9;;
56271;SDS011;42177;48.914;18.160;2023-12-04T23:45:59;7.2;;;5.8;;
56271;SDS011;42177;48.914;18.160;2023-12-04T23:50:59;7.2;;;5.8;;
56271;SDS011;42177;48.914;18.160;2023-12-04T23:55:59;7;;;5.2;;
